sensor_id;sensor_type;location;lat;lon;timestamp;P1;durP1;ratioP1;P2;durP2;ratioP2
35243;SDS011;37916;52.160;21.066;2023-08-06T00:04:13;77.20;;;27.98;;
35243;SDS011;37916;52.160;21.066;2023-08-06T00:14:15;84.60;;;29.83;;
35243;SDS011;37916;52.160;21.066;2023-08-06T00:24:17;62.73;;;26.63;;
35243;SDS011;37916;52.160;21.066;2023-08-06T00:34:21;54.63;;;25.60;;
35243;SDS011;37916;52.160;21.066;2023-08-06T00:44:22;46.88;;;21.77;;
35243;SDS011;37916;52.160;21.066;2023-08-06T00:54:23;39.63;;;20.35;;
35243;SDS011;37916;52.160;21.066;2023-08-06T01:04:25;40.22;;;19.90;;
35243;SDS011;37916;52.160;21.066;2023-08-06T01:14:30;33.80;;;19.33;;
35243;SDS011;37916;52.160;21.066;2023-08-06T01:24:31;34.00;;;17.95;;
35243;SDS011;37916;52.160;21.066;2023-08-06T01:34:34;28.27;;;16.27;;
35243;SDS011;37916;52.160;21.066;2023-08-06T01:44:35;26.57;;;16.20;;
35243;SDS011;37916;52.160;21.066;2023-08-06T01:54:37;31.58;;;17.50;;
35243;SDS011;37916;52.160;21.066;2023-08-06T02:04:38;24.80;;;16.45;;
35243;SDS011;37916;52.160;21.066;2023-08-06T02:14:40;25.02;;;16.40;;
35243;SDS011;37916;52.160;21.066;2023-08-06T02:24:41;28.23;;;16.23;;
35243;SDS011;37916;52.160;21.066;2023-08-06T02:34:42;29.17;;;16.20;;
35243;SDS011;37916;52.160;21.066;2023-08-06T02:44:45;25.98;;;15.85;;
35243;SDS011;37916;52.160;21.066;2023-08-06T02:54:56;23.50;;;15.85;;
35243;SDS011;37916;52.160;21.066;2023-08-06T03:05:00;25.67;;;17.40;;
35243;SDS011;37916;52.160;21.066;2023-08-06T03:15:01;29.20;;;16.75;;
35243;SDS011;37916;52.160;21.066;2023-08-06T03:25:02;25.33;;;17.67;;
35243;SDS011;37916;52.160;21.066;2023-08-06T03:35:06;25.35;;;19.17;;
35243;SDS011;37916;52.160;21.066;2023-08-06T03:45:07;26.73;;;17.70;;
35243;SDS011;37916;52.160;21.066;2023-08-06T03:55:12;28.17;;;19.25;;
35243;SDS011;37916;52.160;21.066;2023-08-06T04:05:14;28.15;;;20.17;;
35243;SDS011;37916;52.160;21.066;2023-08-06T04:15:17;28.17;;;20.52;;
35243;SDS011;37916;52.160;21.066;2023-08-06T04:25:18;24.95;;;18.85;;
35243;SDS011;37916;52.160;21.066;2023-08-06T04:35:21;24.60;;;18.43;;
35243;SDS011;37916;52.160;21.066;2023-08-06T04:45:22;22.77;;;18.85;;
35243;SDS011;37916;52.160;21.066;2023-08-06T04:55:24;19.17;;;16.75;;
35243;SDS011;37916;52.160;21.066;2023-08-06T05:05:26;19.17;;;15.30;;
35243;SDS011;37916;52.160;21.066;2023-08-06T05:15:27;15.10;;;12.13;;
35243;SDS011;37916;52.160;21.066;2023-08-06T05:25:34;14.18;;;11.15;;
35243;SDS011;37916;52.160;21.066;2023-08-06T05:35:40;15.82;;;10.95;;
35243;SDS011;37916;52.160;21.066;2023-08-06T05:45:46;12.00;;;9.75;;
35243;SDS011;37916;52.160;21.066;2023-08-06T05:55:47;10.43;;;9.25;;
35243;SDS011;37916;52.160;21.066;2023-08-06T06:05:49;10.45;;;8.45;;
35243;SDS011;37916;52.160;21.066;2023-08-06T06:15:50;12.95;;;8.35;;
35243;SDS011;37916;52.160;21.066;2023-08-06T06:25:51;8.57;;;7.60;;
35243;SDS011;37916;52.160;21.066;2023-08-06T06:35:52;10.70;;;7.23;;
35243;SDS011;37916;52.160;21.066;2023-08-06T06:45:53;9.93;;;7.50;;
35243;SDS011;37916;52.160;21.066;2023-08-06T06:56:04;11.50;;;6.65;;
35243;SDS011;37916;52.160;21.066;2023-08-06T07:06:05;10.68;;;6.65;;
35243;SDS011;37916;52.160;21.066;2023-08-06T07:16:06;9.90;;;7.60;;
35243;SDS011;37916;52.160;21.066;2023-08-06T07:26:07;8.65;;;7.00;;
35243;SDS011;37916;52.160;21.066;2023-08-06T07:36:13;11.25;;;7.07;;
35243;SDS011;37916;52.160;21.066;2023-08-06T07:46:14;9.40;;;6.65;;
35243;SDS011;37916;52.160;21.066;2023-08-06T07:56:15;10.68;;;7.22;;
35243;SDS011;37916;52.160;21.066;2023-08-06T08:06:16;11.98;;;7.25;;
35243;SDS011;37916;52.160;21.066;2023-08-06T08:16:17;16.08;;;7.22;;
35243;SDS011;37916;52.160;21.066;2023-08-06T08:26:18;10.93;;;6.30;;
35243;SDS011;37916;52.160;21.066;2023-08-06T08:36:19;9.95;;;6.30;;
35243;SDS011;37916;52.160;21.066;2023-08-06T08:46:20;8.52;;;6.03;;
35243;SDS011;37916;52.160;21.066;2023-08-06T08:56:22;13.57;;;6.35;;
35243;SDS011;37916;52.160;21.066;2023-08-06T09:06:23;8.15;;;6.20;;
35243;SDS011;37916;52.160;21.066;2023-08-06T09:16:27;10.30;;;6.10;;
35243;SDS011;37916;52.160;21.066;2023-08-06T09:26:33;8.52;;;6.03;;
35243;SDS011;37916;52.160;21.066;2023-08-06T09:36:34;8.23;;;5.90;;
35243;SDS011;37916;52.160;21.066;2023-08-06T09:46:49;8.30;;;5.63;;
35243;SDS011;37916;52.160;21.066;2023-08-06T09:56:50;12.13;;;5.03;;
35243;SDS011;37916;52.160;21.066;2023-08-06T10:06:51;6.88;;;4.97;;
35243;SDS011;37916;52.160;21.066;2023-08-06T10:16:53;10.13;;;5.53;;
35243;SDS011;37916;52.160;21.066;2023-08-06T10:26:56;11.07;;;5.50;;
35243;SDS011;37916;52.160;21.066;2023-08-06T10:36:59;6.30;;;5.40;;
35243;SDS011;37916;52.160;21.066;2023-08-06T10:47:25;6.03;;;4.57;;
35243;SDS011;37916;52.160;21.066;2023-08-06T10:57:23;8.20;;;4.20;;
35243;SDS011;37916;52.160;21.066;2023-08-06T11:07:24;6.68;;;4.85;;
35243;SDS011;37916;52.160;21.066;2023-08-06T11:17:32;9.60;;;4.40;;
35243;SDS011;37916;52.160;21.066;2023-08-06T11:27:33;8.10;;;4.10;;
35243;SDS011;37916;52.160;21.066;2023-08-06T11:37:34;7.10;;;4.20;;
35243;SDS011;37916;52.160;21.066;2023-08-06T11:57:39;5.23;;;4.50;;
35243;SDS011;37916;52.160;21.066;2023-08-06T12:07:42;5.07;;;4.43;;
35243;SDS011;37916;52.160;21.066;2023-08-06T12:17:43;5.93;;;4.80;;
35243;SDS011;37916;52.160;21.066;2023-08-06T12:27:44;6.25;;;5.05;;
35243;SDS011;37916;52.160;21.066;2023-08-06T12:37:46;7.68;;;5.53;;
35243;SDS011;37916;52.160;21.066;2023-08-06T12:47:47;8.40;;;5.10;;
35243;SDS011;37916;52.160;21.066;2023-08-06T12:57:49;7.70;;;4.93;;
35243;SDS011;37916;52.160;21.066;2023-08-06T13:07:50;9.43;;;5.50;;
35243;SDS011;37916;52.160;21.066;2023-08-06T13:17:51;7.17;;;5.30;;
35243;SDS011;37916;52.160;21.066;2023-08-06T13:27:52;9.20;;;4.50;;
35243;SDS011;37916;52.160;21.066;2023-08-06T13:38:02;7.50;;;4.63;;
35243;SDS011;37916;52.160;21.066;2023-08-06T13:48:03;7.50;;;4.63;;
35243;SDS011;37916;52.160;21.066;2023-08-06T13:58:04;4.50;;;3.77;;
35243;SDS011;37916;52.160;21.066;2023-08-06T14:08:05;6.57;;;4.60;;
35243;SDS011;37916;52.160;21.066;2023-08-06T14:18:06;5.60;;;4.70;;
35243;SDS011;37916;52.160;21.066;2023-08-06T14:28:10;5.68;;;3.92;;
35243;SDS011;37916;52.160;21.066;2023-08-06T14:38:12;4.88;;;3.30;;
35243;SDS011;37916;52.160;21.066;2023-08-06T14:48:16;3.30;;;3.00;;
35243;SDS011;37916;52.160;21.066;2023-08-06T14:58:22;3.80;;;2.88;;
35243;SDS011;37916;52.160;21.066;2023-08-06T15:08:23;3.10;;;2.45;;
35243;SDS011;37916;52.160;21.066;2023-08-06T15:18:24;2.87;;;1.93;;
35243;SDS011;37916;52.160;21.066;2023-08-06T15:28:25;3.93;;;2.00;;
35243;SDS011;37916;52.160;21.066;2023-08-06T15:38:26;2.50;;;2.00;;
35243;SDS011;37916;52.160;21.066;2023-08-06T15:48:27;4.03;;;1.47;;
35243;SDS011;37916;52.160;21.066;2023-08-06T15:58:28;3.20;;;1.13;;
35243;SDS011;37916;52.160;21.066;2023-08-06T16:08:29;2.07;;;1.00;;
35243;SDS011;37916;52.160;21.066;2023-08-06T16:18:30;3.47;;;0.80;;
35243;SDS011;37916;52.160;21.066;2023-08-06T16:28:31;2.77;;;0.70;;
35243;SDS011;37916;52.160;21.066;2023-08-06T16:38:32;1.37;;;0.80;;
35243;SDS011;37916;52.160;21.066;2023-08-06T16:48:33;1.30;;;0.67;;
35243;SDS011;37916;52.160;21.066;2023-08-06T16:58:36;2.42;;;0.52;;
35243;SDS011;37916;52.160;21.066;2023-08-06T17:08:40;3.95;;;1.15;;
35243;SDS011;37916;52.160;21.066;2023-08-06T17:18:41;1.77;;;0.60;;
35243;SDS011;37916;52.160;21.066;2023-08-06T17:28:42;2.20;;;0.60;;
35243;SDS011;37916;52.160;21.066;2023-08-06T17:38:47;4.53;;;1.10;;
35243;SDS011;37916;52.160;21.066;2023-08-06T17:49:07;1.70;;;1.27;;
35243;SDS011;37916;52.160;21.066;2023-08-06T17:59:08;1.95;;;1.40;;
35243;SDS011;37916;52.160;21.066;2023-08-06T18:19:48;1.50;;;1.40;;
35243;SDS011;37916;52.160;21.066;2023-08-06T18:29:49;0.90;;;0.70;;
35243;SDS011;37916;52.160;21.066;2023-08-06T18:39:50;0.63;;;0.60;;
35243;SDS011;37916;52.160;21.066;2023-08-06T18:49:51;0.98;;;0.90;;
35243;SDS011;37916;52.160;21.066;2023-08-06T19:00:00;2.28;;;1.23;;
35243;SDS011;37916;52.160;21.066;2023-08-06T19:10:06;1.83;;;1.25;;
35243;SDS011;37916;52.160;21.066;2023-08-06T19:20:13;2.58;;;1.42;;
35243;SDS011;37916;52.160;21.066;2023-08-06T19:30:14;2.33;;;1.50;;
35243;SDS011;37916;52.160;21.066;2023-08-06T19:40:22;1.38;;;1.00;;
35243;SDS011;37916;52.160;21.066;2023-08-06T20:00:40;1.65;;;0.80;;
35243;SDS011;37916;52.160;21.066;2023-08-06T20:10:48;0.50;;;0.40;;
35243;SDS011;37916;52.160;21.066;2023-08-06T20:20:50;0.57;;;0.25;;
35243;SDS011;37916;52.160;21.066;2023-08-06T20:30:55;2.08;;;0.30;;
35243;SDS011;37916;52.160;21.066;2023-08-06T20:40:56;0.82;;;0.30;;
35243;SDS011;37916;52.160;21.066;2023-08-06T20:50:57;0.95;;;0.30;;
35243;SDS011;37916;52.160;21.066;2023-08-06T21:00:59;0.95;;;0.30;;
35243;SDS011;37916;52.160;21.066;2023-08-06T21:11:02;0.70;;;0.30;;
35243;SDS011;37916;52.160;21.066;2023-08-06T21:21:04;1.35;;;0.20;;
35243;SDS011;37916;52.160;21.066;2023-08-06T21:31:07;0.90;;;0.30;;
35243;SDS011;37916;52.160;21.066;2023-08-06T21:41:10;2.60;;;0.38;;
35243;SDS011;37916;52.160;21.066;2023-08-06T21:51:18;2.47;;;0.22;;
35243;SDS011;37916;52.160;21.066;2023-08-06T22:01:19;0.30;;;0.20;;
35243;SDS011;37916;52.160;21.066;2023-08-06T22:11:20;0.40;;;0.40;;
35243;SDS011;37916;52.160;21.066;2023-08-06T22:21:21;1.45;;;0.38;;
35243;SDS011;37916;52.160;21.066;2023-08-06T22:31:23;0.88;;;0.30;;
35243;SDS011;37916;52.160;21.066;2023-08-06T22:41:24;0.32;;;0.28;;
35243;SDS011;37916;52.160;21.066;2023-08-06T22:51:26;0.10;;;0.10;;
35243;SDS011;37916;52.160;21.066;2023-08-06T23:01:27;1.42;;;0.17;;
35243;SDS011;37916;52.160;21.066;2023-08-06T23:11:28;3.15;;;0.20;;
35243;SDS011;37916;52.160;21.066;2023-08-06T23:21:29;1.52;;;0.20;;
35243;SDS011;37916;52.160;21.066;2023-08-06T23:31:30;1.02;;;0.20;;
35243;SDS011;37916;52.160;21.066;2023-08-06T23:41:31;1.65;;;0.20;;
35243;SDS011;37916;52.160;21.066;2023-08-06T23:51:32;1.55;;;0.30;;
